Station Historical Data
Daily Summary for January 14, 2012 Units:  Both    English   Metric
« Previous Day
Next Day »
Daily Weekly Monthly Yearly Custom
  High: Low: Average:
Temperature: 54.9 °F /  12.7 °C 24.1 °F /  -4.4 °C 38 °F /  3.3 °C
Dew Point: 30.0 °F /  -1.1 °C 18.2 °F /  -7.7 °C 23.9 °F /  -4.5 °C
Humidity: 82% 29% 59%
Wind Speed: 21.0mph /  33.8km/h - 5.9mph /  9.5km/h
Wind Gust: 28.0mph /  45.1km/h - -
Wind- - SW
Pressure: 30.28 in /  1025.3 hPa 30.05 in /  1017.5 hPa -
Precipitation: 0.00 in /  0 mm    
Historical Graphs
 
 
Tabular Data for January 14, 2012
Time Temperature Dew Point Pressure Wind Wind Speed Wind Gust Humidity Rainfall Rate (Hourly) Conditions
00:00 27.4 °F /  -2.6 °C 18.9 °F /  -7.3 °C 30.24in /  1023.9hPa SW 2.0mph /  3.2km/h 4.0mph /  6.4km/h 70% 0.00in /  0mm
00:01 27.3 °F /  -2.6 °C 18.8 °F /  -7.3 °C 30.24in /  1023.9hPa SW 2.0mph /  3.2km/h 4.0mph /  6.4km/h 70% 0.00in /  0mm
00:02 27.3 °F /  -2.6 °C 18.8 °F /  -7.3 °C 30.24in /  1023.9hPa SW 2.0mph /  3.2km/h 4.0mph /  6.4km/h 70% 0.00in /  0mm
00:07 27.2 °F /  -2.7 °C 18.7 °F /  -7.4 °C 30.25in /  1024.3hPa SSW 3.0mph /  4.8km/h 3.0mph /  4.8km/h 70% 0.00in /  0mm
00:12 27.0 °F /  -2.8 °C 18.9 °F /  -7.3 °C 30.25in /  1024.3hPa SW 1.0mph /  1.6km/h 4.0mph /  6.4km/h 71% 0.00in /  0mm
00:17 26.8 °F /  -2.9 °C 18.7 °F /  -7.4 °C 30.24in /  1023.9hPa SW 2.0mph /  3.2km/h 2.0mph /  3.2km/h 71% 0.00in /  0mm
00:22 26.9 °F /  -2.8 °C 18.8 °F /  -7.3 °C 30.24in /  1023.9hPa SW 2.0mph /  3.2km/h 3.0mph /  4.8km/h 71% 0.00in /  0mm
00:27 27.0 °F /  -2.8 °C 18.9 °F /  -7.3 °C 30.24in /  1023.9hPa SW 1.0mph /  1.6km/h 2.0mph /  3.2km/h 71% 0.00in /  0mm
00:32 26.9 °F /  -2.8 °C 19.1 °F /  -7.2 °C 30.24in /  1023.9hPa SW 1.0mph /  1.6km/h 2.0mph /  3.2km/h 72% 0.00in /  0mm
00:37 26.7 °F /  -2.9 °C 18.9 °F /  -7.3 °C 30.24in /  1023.9hPa SSE 1.0mph /  1.6km/h 1.0mph /  1.6km/h 72% 0.00in /  0mm
00:42 26.6 °F /  -3 °C 18.8 °F /  -7.3 °C 30.23in /  1023.6hPa SSW 2.0mph /  3.2km/h 2.0mph /  3.2km/h 72% 0.00in /  0mm
00:47 26.6 °F /  -3 °C 18.8 °F /  -7.3 °C 30.23in /  1023.6hPa SSW 1.0mph /  1.6km/h 2.0mph /  3.2km/h 72% 0.00in /  0mm
00:52 26.5 °F /  -3.1 °C 18.7 °F /  -7.4 °C 30.23in /  1023.6hPa SSW 1.0mph /  1.6km/h 4.0mph /  6.4km/h 72% 0.00in /  0mm
00:57 26.4 °F /  -3.1 °C 18.9 °F /  -7.3 °C 30.24in /  1023.9hPa SW 3.0mph /  4.8km/h 4.0mph /  6.4km/h 73% 0.00in /  0mm
01:02 26.4 °F /  -3.1 °C 18.9 °F /  -7.3 °C 30.24in /  1023.9hPa WSW 3.0mph /  4.8km/h 5.0mph /  8km/h 73% 0.00in /  0mm
01:07 26.6 °F /  -3 °C 19.1 °F /  -7.2 °C 30.24in /  1023.9hPa SW 4.0mph /  6.4km/h 4.0mph /  6.4km/h 73% 0.00in /  0mm
01:12 26.8 °F /  -2.9 °C 19.3 °F /  -7.1 °C 30.25in /  1024.3hPa WSW 2.0mph /  3.2km/h 4.0mph /  6.4km/h 73% 0.00in /  0mm
01:17 26.8 °F /  -2.9 °C 19.3 °F /  -7.1 °C 30.24in /  1023.9hPa WSW 2.0mph /  3.2km/h 4.0mph /  6.4km/h 73% 0.00in /  0mm
01:22 26.7 °F /  -2.9 °C 19.5 °F /  -6.9 °C 30.24in /  1023.9hPa West 2.0mph /  3.2km/h 4.0mph /  6.4km/h 74% 0.00in /  0mm
01:27 26.7 °F /  -2.9 °C 19.5 °F /  -6.9 °C 30.24in /  1023.9hPa West 2.0mph /  3.2km/h 3.0mph /  4.8km/h 74% 0.00in /  0mm
01:32 26.8 °F /  -2.9 °C 19.6 °F /  -6.9 °C 30.24in /  1023.9hPa WSW 2.0mph /  3.2km/h 3.0mph /  4.8km/h 74% 0.00in /  0mm
01:37 27.0 °F /  -2.8 °C 19.5 °F /  -6.9 °C 30.24in /  1023.9hPa WSW 3.0mph /  4.8km/h 5.0mph /  8km/h 73% 0.00in /  0mm
01:43 27.1 °F /  -2.7 °C 19.6 °F /  -6.9 °C 30.24in /  1023.9hPa West 3.0mph /  4.8km/h 4.0mph /  6.4km/h 73% 0.00in /  0mm
01:48 27.0 °F /  -2.8 °C 19.5 °F /  -6.9 °C 30.24in /  1023.9hPa WSW 2.0mph /  3.2km/h 3.0mph /  4.8km/h 73% 0.00in /  0mm
01:53 26.9 °F /  -2.8 °C 19.4 °F /  -7 °C 30.24in /  1023.9hPa WSW 2.0mph /  3.2km/h 2.0mph /  3.2km/h 73% 0.00in /  0mm
01:58 26.9 °F /  -2.8 °C 19.4 °F /  -7 °C 30.24in /  1023.9hPa SW 1.0mph /  1.6km/h 2.0mph /  3.2km/h 73% 0.00in /  0mm
02:03 26.8 °F /  -2.9 °C 19.3 °F /  -7.1 °C 30.24in /  1023.9hPa WSW 1.0mph /  1.6km/h 2.0mph /  3.2km/h 73% 0.00in /  0mm
02:08 26.7 °F /  -2.9 °C 19.5 °F /  -6.9 °C 30.24in /  1023.9hPa WSW 1.0mph /  1.6km/h 2.0mph /  3.2km/h 74% 0.00in /  0mm
02:13 26.7 °F /  -2.9 °C 19.5 °F /  -6.9 °C 30.24in /  1023.9hPa WSW 2.0mph /  3.2km/h 2.0mph /  3.2km/h 74% 0.00in /  0mm
02:18 26.6 °F /  -3 °C 19.4 °F /  -7 °C 30.25in /  1024.3hPa SW 1.0mph /  1.6km/h 2.0mph /  3.2km/h 74% 0.00in /  0mm
02:23 26.3 °F /  -3.2 °C 18.8 °F /  -7.3 °C 30.25in /  1024.3hPa SSW 2.0mph /  3.2km/h 2.0mph /  3.2km/h 73% 0.00in /  0mm
02:28 26.2 °F /  -3.2 °C 18.7 °F /  -7.4 °C 30.25in /  1024.3hPa SW 2.0mph /  3.2km/h 2.0mph /  3.2km/h 73% 0.00in /  0mm
02:33 26.0 °F /  -3.3 °C 18.9 °F /  -7.3 °C 30.25in /  1024.3hPa SSW 1.0mph /  1.6km/h 2.0mph /  3.2km/h 74% 0.00in /  0mm
02:38 26.0 °F /  -3.3 °C 18.9 °F /  -7.3 °C 30.26in /  1024.6hPa SSW 1.0mph /  1.6km/h 2.0mph /  3.2km/h 74% 0.00in /  0mm
02:43 25.9 °F /  -3.4 °C 18.8 °F /  -7.3 °C 30.25in /  1024.3hPa SW 1.0mph /  1.6km/h 2.0mph /  3.2km/h 74% 0.00in /  0mm
02:48 26.0 °F /  -3.3 °C 18.9 °F /  -7.3 °C 30.26in /  1024.6hPa SW 1.0mph /  1.6km/h 2.0mph /  3.2km/h 74% 0.00in /  0mm
02:53 25.9 °F /  -3.4 °C 18.8 °F /  -7.3 °C 30.26in /  1024.6hPa SSW 1.0mph /  1.6km/h 2.0mph /  3.2km/h 74% 0.00in /  0mm
02:58 25.8 °F /  -3.4 °C 18.7 °F /  -7.4 °C 30.26in /  1024.6hPa SSW 1.0mph /  1.6km/h 1.0mph /  1.6km/h 74% 0.00in /  0mm
03:03 25.8 °F /  -3.4 °C 18.7 °F /  -7.4 °C 30.26in /  1024.6hPa SSW 1.0mph /  1.6km/h 1.0mph /  1.6km/h 74% 0.00in /  0mm
03:08 25.6 °F /  -3.6 °C 18.5 °F /  -7.5 °C 30.25in /  1024.3hPa SSW 1.0mph /  1.6km/h 1.0mph /  1.6km/h 74% 0.00in /  0mm
03:13 25.6 °F /  -3.6 °C 18.8 °F /  -7.3 °C 30.26in /  1024.6hPa SSW 1.0mph /  1.6km/h 1.0mph /  1.6km/h 75% 0.00in /  0mm
03:18 25.5 °F /  -3.6 °C 18.7 °F /  -7.4 °C 30.25in /  1024.3hPa Calm   1.0mph /  1.6km/h 75% 0.00in /  0mm
03:23 25.5 °F /  -3.6 °C 18.7 °F /  -7.4 °C 30.26in /  1024.6hPa SSW 1.0mph /  1.6km/h 1.0mph /  1.6km/h 75% 0.00in /  0mm
03:28 25.3 °F /  -3.7 °C 18.5 °F /  -7.5 °C 30.26in /  1024.6hPa SSW 1.0mph /  1.6km/h 1.0mph /  1.6km/h 75% 0.00in /  0mm
03:33 25.3 °F /  -3.7 °C 18.5 °F /  -7.5 °C 30.26in /  1024.6hPa SSW 1.0mph /  1.6km/h 1.0mph /  1.6km/h 75% 0.00in /  0mm
03:39 25.2 °F /  -3.8 °C 18.4 °F /  -7.6 °C 30.26in /  1024.6hPa Calm   1.0mph /  1.6km/h 75% 0.00in /  0mm
03:44 25.1 °F /  -3.8 °C 18.3 °F /  -7.6 °C 30.26in /  1024.6hPa SSW 1.0mph /  1.6km/h 1.0mph /  1.6km/h 75% 0.00in /  0mm
03:49 25.1 °F /  -3.8 °C 18.3 °F /  -7.6 °C 30.26in /  1024.6hPa SSW 1.0mph /  1.6km/h 1.0mph /  1.6km/h 75% 0.00in /  0mm
03:54 25.2 °F /  -3.8 °C 18.4 °F /  -7.6 °C 30.26in /  1024.6hPa Calm   1.0mph /  1.6km/h 75% 0.00in /  0mm
03:59 25.2 °F /  -3.8 °C 18.4 °F /  -7.6 °C 30.26in /  1024.6hPa SSW 1.0mph /  1.6km/h 1.0mph /  1.6km/h 75% 0.00in /  0mm
04:04 25.1 °F /  -3.8 °C 18.3 °F /  -7.6 °C 30.26in /  1024.6hPa SSW 1.0mph /  1.6km/h 2.0mph /  3.2km/h 75% 0.00in /  0mm
04:09 25.1 °F /  -3.8 °C 18.3 °F /  -7.6 °C 30.26in /  1024.6hPa Calm   1.0mph /  1.6km/h 75% 0.00in /  0mm
04:14 25.1 °F /  -3.8 °C 18.3 °F /  -7.6 °C 30.26in /  1024.6hPa SSE 1.0mph /  1.6km/h 1.0mph /  1.6km/h 75% 0.00in /  0mm
04:19 25.1 °F /  -3.8 °C 18.3 °F /  -7.6 °C 30.26in /  1024.6hPa SSE 1.0mph /  1.6km/h 1.0mph /  1.6km/h 75% 0.00in /  0mm
04:24 25.4 °F /  -3.7 °C 18.6 °F /  -7.4 °C 30.26in /  1024.6hPa SE 1.0mph /  1.6km/h 1.0mph /  1.6km/h 75% 0.00in /  0mm
04:29 25.7 °F /  -3.5 °C 18.6 °F /  -7.4 °C 30.25in /  1024.3hPa SE 1.0mph /  1.6km/h 1.0mph /  1.6km/h 74% 0.00in /  0mm
04:34 25.7 °F /  -3.5 °C 18.3 °F /  -7.6 °C 30.26in /  1024.6hPa SE 1.0mph /  1.6km/h 1.0mph /  1.6km/h 73% 0.00in /  0mm
04:39 25.7 °F /  -3.5 °C 18.6 °F /  -7.4 °C 30.26in /  1024.6hPa SSW 1.0mph /  1.6km/h 1.0mph /  1.6km/h 74% 0.00in /  0mm
04:44 25.3 °F /  -3.7 °C 18.2 °F /  -7.7 °C 30.26in /  1024.6hPa Calm   1.0mph /  1.6km/h 74% 0.00in /  0mm
04:49 24.8 °F /  -4 °C 18.3 °F /  -7.6 °C 30.26in /  1024.6hPa SSW 1.0mph /  1.6km/h 2.0mph /  3.2km/h 76% 0.00in /  0mm
04:54 24.4 °F /  -4.2 °C 18.5 °F /  -7.5 °C 30.25in /  1024.3hPa South 2.0mph /  3.2km/h 2.0mph /  3.2km/h 78% 0.00in /  0mm
04:59 24.4 °F /  -4.2 °C 18.5 °F /  -7.5 °C 30.26in /  1024.6hPa SSE 2.0mph /  3.2km/h 2.0mph /  3.2km/h 78% 0.00in /  0mm
05:04 24.7 °F /  -4.1 °C 18.2 °F /  -7.7 °C 30.26in /  1024.6hPa SSE 2.0mph /  3.2km/h 3.0mph /  4.8km/h 76% 0.00in /  0mm
05:09 25.1 °F /  -3.8 °C 18.6 °F /  -7.4 °C 30.25in /  1024.3hPa SSE 2.0mph /  3.2km/h 3.0mph /  4.8km/h 76% 0.00in /  0mm
05:14 25.2 °F /  -3.8 °C 18.4 °F /  -7.6 °C 30.26in /  1024.6hPa SSE 1.0mph /  1.6km/h 2.0mph /  3.2km/h 75% 0.00in /  0mm
05:19 25.1 °F /  -3.8 °C 18.3 °F /  -7.6 °C 30.26in /  1024.6hPa SSE 2.0mph /  3.2km/h 2.0mph /  3.2km/h 75% 0.00in /  0mm
05:24 25.1 °F /  -3.8 °C 18.3 °F /  -7.6 °C 30.26in /  1024.6hPa SSE 2.0mph /  3.2km/h 2.0mph /  3.2km/h 75% 0.00in /  0mm
05:29 25.0 °F /  -3.9 °C 18.5 °F /  -7.5 °C 30.26in /  1024.6hPa SSE 2.0mph /  3.2km/h 2.0mph /  3.2km/h 76% 0.00in /  0mm
05:34 24.9 °F /  -3.9 °C 18.4 °F /  -7.6 °C 30.26in /  1024.6hPa SSE 2.0mph /  3.2km/h 2.0mph /  3.2km/h 76% 0.00in /  0mm
05:39 25.0 °F /  -3.9 °C 18.5 °F /  -7.5 °C 30.26in /  1024.6hPa SSE 2.0mph /  3.2km/h 2.0mph /  3.2km/h 76% 0.00in /  0mm
05:44 25.0 °F /  -3.9 °C 18.5 °F /  -7.5 °C 30.25in /  1024.3hPa SE 2.0mph /  3.2km/h 2.0mph /  3.2km/h 76% 0.00in /  0mm
05:49 24.9 °F /  -3.9 °C 18.4 °F /  -7.6 °C 30.26in /  1024.6hPa SE 1.0mph /  1.6km/h 2.0mph /  3.2km/h 76% 0.00in /  0mm
05:54 24.8 °F /  -4 °C 18.6 °F /  -7.4 °C 30.25in /  1024.3hPa SE 3.0mph /  4.8km/h 3.0mph /  4.8km/h 77% 0.00in /  0mm
05:59 24.8 °F /  -4 °C 18.6 °F /  -7.4 °C 30.26in /  1024.6hPa ESE 2.0mph /  3.2km/h 2.0mph /  3.2km/h 77% 0.00in /  0mm
06:04 24.9 °F /  -3.9 °C 18.7 °F /  -7.4 °C 30.26in /  1024.6hPa ESE 1.0mph /  1.6km/h 2.0mph /  3.2km/h 77% 0.00in /  0mm
06:09 24.7 °F /  -4.1 °C 18.5 °F /  -7.5 °C 30.26in /  1024.6hPa ESE 1.0mph /  1.6km/h 1.0mph /  1.6km/h 77% 0.00in /  0mm
06:15 24.6 °F /  -4.1 °C 18.4 °F /  -7.6 °C 30.26in /  1024.6hPa ESE 1.0mph /  1.6km/h 1.0mph /  1.6km/h 77% 0.00in /  0mm
06:20 24.6 °F /  -4.1 °C 18.4 °F /  -7.6 °C 30.26in /  1024.6hPa SE 1.0mph /  1.6km/h 2.0mph /  3.2km/h 77% 0.00in /  0mm
06:25 24.2 °F /  -4.3 °C 18.3 °F /  -7.6 °C 30.26in /  1024.6hPa SE 3.0mph /  4.8km/h 3.0mph /  4.8km/h 78% 0.00in /  0mm
06:30 24.4 °F /  -4.2 °C 18.5 °F /  -7.5 °C 30.25in /  1024.3hPa SE 4.0mph /  6.4km/h 4.0mph /  6.4km/h 78% 0.00in /  0mm
06:35 24.4 °F /  -4.2 °C 18.5 °F /  -7.5 °C 30.26in /  1024.6hPa South 1.0mph /  1.6km/h 4.0mph /  6.4km/h 78% 0.00in /  0mm
06:40 24.4 °F /  -4.2 °C 18.5 °F /  -7.5 °C 30.27in /  1024.9hPa SSE 3.0mph /  4.8km/h 3.0mph /  4.8km/h 78% 0.00in /  0mm
06:45 24.2 °F /  -4.3 °C 18.3 °F /  -7.6 °C 30.27in /  1024.9hPa SSE 2.0mph /  3.2km/h 2.0mph /  3.2km/h 78% 0.00in /  0mm
06:50 24.1 °F /  -4.4 °C 18.5 °F /  -7.5 °C 30.27in /  1024.9hPa SE 2.0mph /  3.2km/h 2.0mph /  3.2km/h 79% 0.00in /  0mm
06:55 24.1 °F /  -4.4 °C 18.5 °F /  -7.5 °C 30.26in /  1024.6hPa SE 3.0mph /  4.8km/h 4.0mph /  6.4km/h 79% 0.00in /  0mm
07:00 24.2 °F /  -4.3 °C 18.6 °F /  -7.4 °C 30.26in /  1024.6hPa SE 3.0mph /  4.8km/h 3.0mph /  4.8km/h 79% 0.00in /  0mm
07:05 24.2 °F /  -4.3 °C 18.6 °F /  -7.4 °C 30.26in /  1024.6hPa SE 4.0mph /  6.4km/h 5.0mph /  8km/h 79% 0.00in /  0mm
07:10 24.2 °F /  -4.3 °C 18.6 °F /  -7.4 °C 30.26in /  1024.6hPa SSE 2.0mph /  3.2km/h 3.0mph /  4.8km/h 79% 0.00in /  0mm
07:15 24.2 °F /  -4.3 °C 18.6 °F /  -7.4 °C 30.26in /  1024.6hPa SE 1.0mph /  1.6km/h 3.0mph /  4.8km/h 79% 0.00in /  0mm
07:20 24.2 °F /  -4.3 °C 18.6 °F /  -7.4 °C 30.26in /  1024.6hPa SE 1.0mph /  1.6km/h 2.0mph /  3.2km/h 79% 0.00in /  0mm
07:25 24.4 °F /  -4.2 °C 18.8 °F /  -7.3 °C 30.26in /  1024.6hPa SE 2.0mph /  3.2km/h 4.0mph /  6.4km/h 79% 0.00in /  0mm
07:30 24.2 °F /  -4.3 °C 18.9 °F /  -7.3 °C 30.26in /  1024.6hPa SE 1.0mph /  1.6km/h 3.0mph /  4.8km/h 80% 0.00in /  0mm
07:35 24.1 °F /  -4.4 °C 19.1 °F /  -7.2 °C 30.26in /  1024.6hPa SE 2.0mph /  3.2km/h 3.0mph /  4.8km/h 81% 0.00in /  0mm
07:40 24.3 °F /  -4.3 °C 19.3 °F /  -7.1 °C 30.26in /  1024.6hPa SE 3.0mph /  4.8km/h 3.0mph /  4.8km/h 81% 0.00in /  0mm
07:45 24.5 °F /  -4.2 °C 19.5 °F /  -6.9 °C 30.26in /  1024.6hPa SE 3.0mph /  4.8km/h 4.0mph /  6.4km/h 81% 0.00in /  0mm
07:50 24.7 °F /  -4.1 °C 19.7 °F /  -6.8 °C 30.26in /  1024.6hPa SE 3.0mph /  4.8km/h 3.0mph /  4.8km/h 81% 0.00in /  0mm
07:55 24.7 °F /  -4.1 °C 19.7 °F /  -6.8 °C 30.26in /  1024.6hPa ESE 2.0mph /  3.2km/h 3.0mph /  4.8km/h 81% 0.00in /  0mm
08:00 24.5 °F /  -4.2 °C 19.5 °F /  -6.9 °C 30.26in /  1024.6hPa SE 2.0mph /  3.2km/h 3.0mph /  4.8km/h 81% 0.00in /  0mm
08:06 24.6 °F /  -4.1 °C 19.9 °F /  -6.7 °C 30.26in /  1024.6hPa ESE 3.0mph /  4.8km/h 3.0mph /  4.8km/h 82% 0.00in /  0mm
08:11 24.9 °F /  -3.9 °C 20.2 °F /  -6.6 °C 30.26in /  1024.6hPa SE 3.0mph /  4.8km/h 4.0mph /  6.4km/h 82% 0.00in /  0mm
08:16 25.3 °F /  -3.7 °C 20.3 °F /  -6.5 °C 30.26in /  1024.6hPa SE 3.0mph /  4.8km/h 5.0mph /  8km/h 81% 0.00in /  0mm
08:21 25.7 °F /  -3.5 °C 20.7 °F /  -6.3 °C 30.25in /  1024.3hPa ESE 3.0mph /  4.8km/h 6.0mph /  9.7km/h 81% 0.00in /  0mm
08:26 26.0 °F /  -3.3 °C 21.0 °F /  -6.1 °C 30.25in /  1024.3hPa SE 4.0mph /  6.4km/h 7.0mph /  11.3km/h 81% 0.00in /  0mm
08:31 26.2 °F /  -3.2 °C 21.2 °F /  -6 °C 30.25in /  1024.3hPa SE 4.0mph /  6.4km/h 5.0mph /  8km/h 81% 0.00in /  0mm
08:36 26.7 °F /  -2.9 °C 21.4 °F /  -5.9 °C 30.25in /  1024.3hPa ESE 5.0mph /  8km/h 6.0mph /  9.7km/h 80% 0.00in /  0mm
08:41 27.0 °F /  -2.8 °C 21.4 °F /  -5.9 °C 30.25in /  1024.3hPa SE 5.0mph /  8km/h 6.0mph /  9.7km/h 79% 0.00in /  0mm
08:46 27.0 °F /  -2.8 °C 21.7 °F /  -5.7 °C 30.26in /  1024.6hPa SSE 5.0mph /  8km/h 5.0mph /  8km/h 80% 0.00in /  0mm
08:51 27.0 °F /  -2.8 °C 21.7 °F /  -5.7 °C 30.26in /  1024.6hPa SE 4.0mph /  6.4km/h 5.0mph /  8km/h 80% 0.00in /  0mm
08:56 27.7 °F /  -2.4 °C 22.4 °F /  -5.3 °C 30.26in /  1024.6hPa SE 3.0mph /  4.8km/h 6.0mph /  9.7km/h 80% 0.00in /  0mm
09:01 28.3 °F /  -2.1 °C 22.6 °F /  -5.2 °C 30.26in /  1024.6hPa SSE 7.0mph /  11.3km/h 7.0mph /  11.3km/h 79% 0.00in /  0mm
09:06 28.9 °F /  -1.7 °C 22.9 °F /  -5.1 °C 30.26in /  1024.6hPa SSE 4.0mph /  6.4km/h 8.0mph /  12.9km/h 78% 0.00in /  0mm
09:11 29.3 °F /  -1.5 °C 22.7 °F /  -5.2 °C 30.26in /  1024.6hPa SE 6.0mph /  9.7km/h 8.0mph /  12.9km/h 76% 0.00in /  0mm
09:16 29.7 °F /  -1.3 °C 23.1 °F /  -4.9 °C 30.26in /  1024.6hPa SE 5.0mph /  8km/h 11.0mph /  17.7km/h 76% 0.00in /  0mm
09:21 30.2 °F /  -1 °C 23.6 °F /  -4.7 °C 30.26in /  1024.6hPa SE 4.0mph /  6.4km/h 8.0mph /  12.9km/h 76% 0.00in /  0mm
09:27 30.7 °F /  -0.7 °C 23.1 °F /  -4.9 °C 30.25in /  1024.3hPa SE 8.0mph /  12.9km/h 9.0mph /  14.5km/h 73% 0.00in /  0mm
09:32 31.2 °F /  -0.4 °C 23.6 °F /  -4.7 °C 30.26in /  1024.6hPa SSE 6.0mph /  9.7km/h 9.0mph /  14.5km/h 73% 0.00in /  0mm
09:37 31.5 °F /  -0.3 °C 23.5 °F /  -4.7 °C 30.25in /  1024.3hPa SSE 5.0mph /  8km/h 10.0mph /  16.1km/h 72% 0.00in /  0mm
09:42 31.8 °F /  -0.1 °C 23.8 °F /  -4.6 °C 30.25in /  1024.3hPa South 5.0mph /  8km/h 8.0mph /  12.9km/h 72% 0.00in /  0mm
09:47 32.3 °F /  0.2 °C 24.0 °F /  -4.4 °C 30.25in /  1024.3hPa SE 8.0mph /  12.9km/h 8.0mph /  12.9km/h 71% 0.00in /  0mm
09:52 32.7 °F /  0.4 °C 24.0 °F /  -4.4 °C 30.25in /  1024.3hPa SE 7.0mph /  11.3km/h 9.0mph /  14.5km/h 70% 0.00in /  0mm
09:57 33.1 °F /  0.6 °C 24.0 °F /  -4.4 °C 30.25in /  1024.3hPa SSE 8.0mph /  12.9km/h 10.0mph /  16.1km/h 69% 0.00in /  0mm
10:02 33.6 °F /  0.9 °C 24.2 °F /  -4.3 °C 30.24in /  1023.9hPa SSE 6.0mph /  9.7km/h 10.0mph /  16.1km/h 68% 0.00in /  0mm
10:07 34.3 °F /  1.3 °C 25.2 °F /  -3.8 °C 30.25in /  1024.3hPa SE 7.0mph /  11.3km/h 9.0mph /  14.5km/h 69% 0.00in /  0mm
10:12 34.7 °F /  1.5 °C 24.5 °F /  -4.2 °C 30.25in /  1024.3hPa SSE 7.0mph /  11.3km/h 11.0mph /  17.7km/h 66% 0.00in /  0mm
10:17 35.1 °F /  1.7 °C 24.9 °F /  -3.9 °C 30.24in /  1023.9hPa SSE 5.0mph /  8km/h 10.0mph /  16.1km/h 66% 0.00in /  0mm
10:22 35.5 °F /  1.9 °C 24.9 °F /  -3.9 °C 30.24in /  1023.9hPa South 6.0mph /  9.7km/h 9.0mph /  14.5km/h 65% 0.00in /  0mm
10:27 36.0 °F /  2.2 °C 24.3 °F /  -4.3 °C 30.24in /  1023.9hPa SE 7.0mph /  11.3km/h 9.0mph /  14.5km/h 62% 0.00in /  0mm
10:33 36.6 °F /  2.6 °C 24.8 °F /  -4 °C 30.24in /  1023.9hPa SSE 5.0mph /  8km/h 10.0mph /  16.1km/h 62% 0.00in /  0mm
10:38 36.8 °F /  2.7 °C 25.0 °F /  -3.9 °C 30.24in /  1023.9hPa SSW 5.0mph /  8km/h 11.0mph /  17.7km/h 62% 0.00in /  0mm
10:43 37.3 °F /  2.9 °C 24.7 °F /  -4.1 °C 30.23in /  1023.6hPa SSE 7.0mph /  11.3km/h 9.0mph /  14.5km/h 60% 0.00in /  0mm
10:48 37.7 °F /  3.2 °C 25.1 °F /  -3.8 °C 30.23in /  1023.6hPa South 8.0mph /  12.9km/h 11.0mph /  17.7km/h 60% 0.00in /  0mm
10:53 38.0 °F /  3.3 °C 25.4 °F /  -3.7 °C 30.23in /  1023.6hPa South 7.0mph /  11.3km/h 10.0mph /  16.1km/h 60% 0.00in /  0mm
10:59 38.5 °F /  3.6 °C 25.4 °F /  -3.7 °C 30.23in /  1023.6hPa SSE 11.0mph /  17.7km/h 11.0mph /  17.7km/h 59% 0.00in /  0mm
11:04 38.8 °F /  3.8 °C 24.9 °F /  -3.9 °C 30.22in /  1023.2hPa ESE 9.0mph /  14.5km/h 11.0mph /  17.7km/h 57% 0.00in /  0mm
11:09 39.4 °F /  4.1 °C 25.9 °F /  -3.4 °C 30.22in /  1023.2hPa SE 8.0mph /  12.9km/h 13.0mph /  20.9km/h 58% 0.00in /  0mm
11:14 39.6 °F /  4.2 °C 24.8 °F /  -4 °C 30.22in /  1023.2hPa SSE 10.0mph /  16.1km/h 13.0mph /  20.9km/h 55% 0.00in /  0mm
11:19 40.1 °F /  4.5 °C 25.7 °F /  -3.5 °C 30.22in /  1023.2hPa SE 7.0mph /  11.3km/h 10.0mph /  16.1km/h 56% 0.00in /  0mm
11:24 40.3 °F /  4.6 °C 25.9 °F /  -3.4 °C 30.21in /  1022.9hPa South 6.0mph /  9.7km/h 12.0mph /  19.3km/h 56% 0.00in /  0mm
11:29 40.9 °F /  4.9 °C 26.4 °F /  -3.1 °C 30.21in /  1022.9hPa SSW 8.0mph /  12.9km/h 10.0mph /  16.1km/h 56% 0.00in /  0mm
11:34 41.5 °F /  5.3 °C 25.7 °F /  -3.5 °C 30.20in /  1022.6hPa SSW 12.0mph /  19.3km/h 12.0mph /  19.3km/h 53% 0.00in /  0mm
11:39 41.9 °F /  5.5 °C 25.6 °F /  -3.6 °C 30.20in /  1022.6hPa SSW 15.0mph /  24.1km/h 15.0mph /  24.1km/h 52% 0.00in /  0mm
11:44 42.4 °F /  5.8 °C 27.4 °F /  -2.6 °C 30.19in /  1022.2hPa SW 6.0mph /  9.7km/h 11.0mph /  17.7km/h 55% 0.00in /  0mm
11:45 42.6 °F /  5.9 °C 27.6 °F /  -2.4 °C 30.19in /  1022.2hPa SSW 8.0mph /  12.9km/h 11.0mph /  17.7km/h 55% 0.00in /  0mm
11:50 43.0 °F /  6.1 °C 26.1 °F /  -3.3 °C 30.18in /  1021.9hPa SSE 6.0mph /  9.7km/h 15.0mph /  24.1km/h 51% 0.00in /  0mm
11:55 43.3 °F /  6.3 °C 27.8 °F /  -2.3 °C 30.18in /  1021.9hPa SSW 7.0mph /  11.3km/h 15.0mph /  24.1km/h 54% 0.00in /  0mm
12:00 43.7 °F /  6.5 °C 25.8 °F /  -3.4 °C 30.18in /  1021.9hPa WSW 11.0mph /  17.7km/h 11.0mph /  17.7km/h 49% 0.00in /  0mm
12:05 44.0 °F /  6.7 °C 27.5 °F /  -2.5 °C 30.17in /  1021.6hPa SSW 7.0mph /  11.3km/h 15.0mph /  24.1km/h 52% 0.00in /  0mm
12:10 44.1 °F /  6.7 °C 26.2 °F /  -3.2 °C 30.17in /  1021.6hPa SSW 14.0mph /  22.5km/h 14.0mph /  22.5km/h 49% 0.00in /  0mm
12:15 44.1 °F /  6.7 °C 26.2 °F /  -3.2 °C 30.16in /  1021.2hPa South 11.0mph /  17.7km/h 15.0mph /  24.1km/h 49% 0.00in /  0mm
12:20 44.5 °F /  6.9 °C 27.5 °F /  -2.5 °C 30.15in /  1020.9hPa SW 8.0mph /  12.9km/h 13.0mph /  20.9km/h 51% 0.00in /  0mm
12:25 44.9 °F /  7.2 °C 27.9 °F /  -2.3 °C 30.15in /  1020.9hPa South 14.0mph /  22.5km/h 14.0mph /  22.5km/h 51% 0.00in /  0mm
12:30 45.2 °F /  7.3 °C 27.2 °F /  -2.7 °C 30.15in /  1020.9hPa SW 8.0mph /  12.9km/h 14.0mph /  22.5km/h 49% 0.00in /  0mm
12:35 45.6 °F /  7.6 °C 27.1 °F /  -2.7 °C 30.14in /  1020.5hPa SSE 8.0mph /  12.9km/h 15.0mph /  24.1km/h 48% 0.00in /  0mm
12:40 46.6 °F /  8.1 °C 28.0 °F /  -2.2 °C 30.14in /  1020.5hPa SW 15.0mph /  24.1km/h 16.0mph /  25.7km/h 48% 0.00in /  0mm
12:45 47.1 °F /  8.4 °C 27.9 °F /  -2.3 °C 30.13in /  1020.2hPa SW 12.0mph /  19.3km/h 13.0mph /  20.9km/h 47% 0.00in /  0mm
12:50 48.0 °F /  8.9 °C 28.2 °F /  -2.1 °C 30.12in /  1019.9hPa South 6.0mph /  9.7km/h 13.0mph /  20.9km/h 46% 0.00in /  0mm
12:55 48.5 °F /  9.2 °C 28.1 °F /  -2.2 °C 30.11in /  1019.5hPa South 9.0mph /  14.5km/h 16.0mph /  25.7km/h 45% 0.00in /  0mm
13:00 48.5 °F /  9.2 °C 27.0 °F /  -2.8 °C 30.10in /  1019.2hPa SSW 11.0mph /  17.7km/h 19.0mph /  30.6km/h 43% 0.00in /  0mm
13:06 48.7 °F /  9.3 °C 27.8 °F /  -2.3 °C 30.10in /  1019.2hPa SSW 16.0mph /  25.7km/h 22.0mph /  35.4km/h 44% 0.00in /  0mm
13:11 48.4 °F /  9.1 °C 27.5 °F /  -2.5 °C 30.10in /  1019.2hPa SW 10.0mph /  16.1km/h 16.0mph /  25.7km/h 44% 0.00in /  0mm
13:16 48.4 °F /  9.1 °C 27.0 °F /  -2.8 °C 30.10in /  1019.2hPa SW 9.0mph /  14.5km/h 14.0mph /  22.5km/h 43% 0.00in /  0mm
13:21 48.7 °F /  9.3 °C 27.2 °F /  -2.7 °C 30.10in /  1019.2hPa SW 10.0mph /  16.1km/h 17.0mph /  27.4km/h 43% 0.00in /  0mm
13:26 48.7 °F /  9.3 °C 27.2 °F /  -2.7 °C 30.10in /  1019.2hPa SW 15.0mph /  24.1km/h 22.0mph /  35.4km/h 43% 0.00in /  0mm
13:31 48.5 °F /  9.2 °C 27.6 °F /  -2.4 °C 30.10in /  1019.2hPa SW 9.0mph /  14.5km/h 17.0mph /  27.4km/h 44% 0.00in /  0mm
13:36 48.6 °F /  9.2 °C 27.7 °F /  -2.4 °C 30.09in /  1018.8hPa SSW 7.0mph /  11.3km/h 17.0mph /  27.4km/h 44% 0.00in /  0mm
13:41 48.7 °F /  9.3 °C 27.2 °F /  -2.7 °C 30.08in /  1018.5hPa SSW 17.0mph /  27.4km/h 17.0mph /  27.4km/h 43% 0.00in /  0mm
13:46 49.2 °F /  9.6 °C 28.8 °F /  -1.8 °C 30.08in /  1018.5hPa SSW 9.0mph /  14.5km/h 16.0mph /  25.7km/h 45% 0.00in /  0mm
13:51 49.3 °F /  9.6 °C 27.2 °F /  -2.7 °C 30.08in /  1018.5hPa SSW 13.0mph /  20.9km/h 16.0mph /  25.7km/h 42% 0.00in /  0mm
13:56 49.6 °F /  9.8 °C 26.9 °F /  -2.8 °C 30.08in /  1018.5hPa SW 13.0mph /  20.9km/h 15.0mph /  24.1km/h 41% 0.00in /  0mm
14:01 50.0 °F /  10 °C 27.8 °F /  -2.3 °C 30.08in /  1018.5hPa SW 12.0mph /  19.3km/h 17.0mph /  27.4km/h 42% 0.00in /  0mm
14:06 50.6 °F /  10.3 °C 29.0 °F /  -1.7 °C 30.08in /  1018.5hPa SW 18.0mph /  29km/h 18.0mph /  29km/h 43% 0.00in /  0mm
14:11 50.6 °F /  10.3 °C 27.8 °F /  -2.3 °C 30.07in /  1018.2hPa WSW 10.0mph /  16.1km/h 15.0mph /  24.1km/h 41% 0.00in /  0mm
14:16 50.7 °F /  10.4 °C 27.3 °F /  -2.6 °C 30.06in /  1017.8hPa SW 11.0mph /  17.7km/h 21.0mph /  33.8km/h 40% 0.00in /  0mm
14:21 50.7 °F /  10.4 °C 27.9 °F /  -2.3 °C 30.06in /  1017.8hPa SW 12.0mph /  19.3km/h 15.0mph /  24.1km/h 41% 0.00in /  0mm
14:26 50.8 °F /  10.4 °C 27.4 °F /  -2.6 °C 30.06in /  1017.8hPa SW 6.0mph /  9.7km/h 17.0mph /  27.4km/h 40% 0.00in /  0mm
14:31 51.5 °F /  10.8 °C 28.6 °F /  -1.9 °C 30.05in /  1017.5hPa SW 10.0mph /  16.1km/h 16.0mph /  25.7km/h 41% 0.00in /  0mm
14:36 52.1 °F /  11.2 °C 29.7 °F /  -1.3 °C 30.05in /  1017.5hPa SSW 8.0mph /  12.9km/h 13.0mph /  20.9km/h 42% 0.00in /  0mm
14:41 52.7 °F /  11.5 °C 29.1 °F /  -1.6 °C 30.05in /  1017.5hPa SSW 13.0mph /  20.9km/h 18.0mph /  29km/h 40% 0.00in /  0mm
14:46 53.1 °F /  11.7 °C 30.0 °F /  -1.1 °C 30.05in /  1017.5hPa SW 9.0mph /  14.5km/h 13.0mph /  20.9km/h 41% 0.00in /  0mm
14:48 53.3 °F /  11.8 °C 29.0 °F /  -1.7 °C 30.05in /  1017.5hPa SW 21.0mph /  33.8km/h 21.0mph /  33.8km/h 39% 0.00in /  0mm
14:53 52.8 °F /  11.6 °C 27.3 °F /  -2.6 °C 30.05in /  1017.5hPa SSW 13.0mph /  20.9km/h 22.0mph /  35.4km/h 37% 0.00in /  0mm
14:58 53.0 °F /  11.7 °C 28.1 °F /  -2.2 °C 30.05in /  1017.5hPa SW 18.0mph /  29km/h 23.0mph /  37km/h 38% 0.00in /  0mm
15:03 52.6 °F /  11.4 °C 27.7 °F /  -2.4 °C 30.05in /  1017.5hPa SW 20.0mph /  32.2km/h 20.0mph /  32.2km/h 38% 0.00in /  0mm
15:08 52.9 °F /  11.6 °C 29.2 °F /  -1.6 °C 30.05in /  1017.5hPa SW 16.0mph /  25.7km/h 16.0mph /  25.7km/h 40% 0.00in /  0mm
15:13 53.1 °F /  11.7 °C 26.9 °F /  -2.8 °C 30.05in /  1017.5hPa WSW 9.0mph /  14.5km/h 25.0mph /  40.2km/h 36% 0.00in /  0mm
15:18 53.4 °F /  11.9 °C 28.5 °F /  -1.9 °C 30.05in /  1017.5hPa West 9.0mph /  14.5km/h 21.0mph /  33.8km/h 38% 0.00in /  0mm
15:24 53.4 °F /  11.9 °C 27.8 °F /  -2.3 °C 30.05in /  1017.5hPa WSW 15.0mph /  24.1km/h 26.0mph /  41.8km/h 37% 0.00in /  0mm
15:29 53.7 °F /  12.1 °C 27.4 °F /  -2.6 °C 30.05in /  1017.5hPa SW 10.0mph /  16.1km/h 18.0mph /  29km/h 36% 0.00in /  0mm
15:34 53.8 °F /  12.1 °C 27.5 °F /  -2.5 °C 30.05in /  1017.5hPa SW 19.0mph /  30.6km/h 27.0mph /  43.5km/h 36% 0.00in /  0mm
15:39 53.8 °F /  12.1 °C 27.5 °F /  -2.5 °C 30.05in /  1017.5hPa SW 16.0mph /  25.7km/h 28.0mph /  45.1km/h 36% 0.00in /  0mm
15:44 53.9 °F /  12.2 °C 27.6 °F /  -2.4 °C 30.05in /  1017.5hPa SW 16.0mph /  25.7km/h 21.0mph /  33.8km/h 36% 0.00in /  0mm
15:50 54.0 °F /  12.2 °C 28.3 °F /  -2.1 °C 30.05in /  1017.5hPa WSW 11.0mph /  17.7km/h 23.0mph /  37km/h 37% 0.00in /  0mm
15:55 54.2 °F /  12.3 °C 28.5 °F /  -1.9 °C 30.05in /  1017.5hPa WSW 16.0mph /  25.7km/h 18.0mph /  29km/h 37% 0.00in /  0mm
16:00 54.2 °F /  12.3 °C 28.5 °F /  -1.9 °C 30.05in /  1017.5hPa SSW 11.0mph /  17.7km/h 20.0mph /  32.2km/h 37% 0.00in /  0mm
16:05 54.4 °F /  12.4 °C 28.7 °F /  -1.8 °C 30.05in /  1017.5hPa SW 15.0mph /  24.1km/h 17.0mph /  27.4km/h 37% 0.00in /  0mm
16:10 54.4 °F /  12.4 °C 28.7 °F /  -1.8 °C 30.05in /  1017.5hPa SW 18.0mph /  29km/h 26.0mph /  41.8km/h 37% 0.00in /  0mm
16:20 54.6 °F /  12.6 °C 28.9 °F /  -1.7 °C 30.05in /  1017.5hPa WSW 8.0mph /  12.9km/h 20.0mph /  32.2km/h 37% 0.00in /  0mm
16:25 54.7 °F /  12.6 °C 28.3 °F /  -2.1 °C 30.05in /  1017.5hPa WSW 10.0mph /  16.1km/h 15.0mph /  24.1km/h 36% 0.00in /  0mm
16:30 54.9 °F /  12.7 °C 27.8 °F /  -2.3 °C 30.05in /  1017.5hPa West 11.0mph /  17.7km/h 14.0mph /  22.5km/h 35% 0.00in /  0mm
16:35 54.7 °F /  12.6 °C 24.7 °F /  -4.1 °C 30.06in /  1017.8hPa West 20.0mph /  32.2km/h 21.0mph /  33.8km/h 31% 0.00in /  0mm
16:40 54.5 °F /  12.5 °C 22.9 °F /  -5.1 °C 30.06in /  1017.8hPa WNW 11.0mph /  17.7km/h 23.0mph /  37km/h 29% 0.00in /  0mm
16:45 54.3 °F /  12.4 °C 22.7 °F /  -5.2 °C 30.07in /  1018.2hPa West 15.0mph /  24.1km/h 15.0mph /  24.1km/h 29% 0.00in /  0mm
16:50 54.1 °F /  12.3 °C 22.6 °F /  -5.2 °C 30.07in /  1018.2hPa West 9.0mph /  14.5km/h 23.0mph /  37km/h 29% 0.00in /  0mm
16:55 53.9 °F /  12.2 °C 24.7 °F /  -4.1 °C 30.07in /  1018.2hPa West 17.0mph /  27.4km/h 18.0mph /  29km/h 32% 0.00in /  0mm
17:00 53.7 °F /  12.1 °C 23.0 °F /  -5 °C 30.07in /  1018.2hPa West 19.0mph /  30.6km/h 27.0mph /  43.5km/h 30% 0.00in /  0mm
17:05 53.5 °F /  11.9 °C 22.9 °F /  -5.1 °C 30.07in /  1018.2hPa West 9.0mph /  14.5km/h 19.0mph /  30.6km/h 30% 0.00in /  0mm
17:10 53.3 °F /  11.8 °C 22.7 °F /  -5.2 °C 30.07in /  1018.2hPa West 11.0mph /  17.7km/h 19.0mph /  30.6km/h 30% 0.00in /  0mm
17:15 53.0 °F /  11.7 °C 23.2 °F /  -4.9 °C 30.08in /  1018.5hPa WSW 15.0mph /  24.1km/h 19.0mph /  30.6km/h 31% 0.00in /  0mm
17:20 52.7 °F /  11.5 °C 23.7 °F /  -4.6 °C 30.08in /  1018.5hPa West 13.0mph /  20.9km/h 17.0mph /  27.4km/h 32% 0.00in /  0mm
17:25 52.5 °F /  11.4 °C 24.2 °F /  -4.3 °C 30.08in /  1018.5hPa WSW 5.0mph /  8km/h 18.0mph /  29km/h 33% 0.00in /  0mm
17:30 52.1 °F /  11.2 °C 23.9 °F /  -4.5 °C 30.09in /  1018.8hPa WSW 9.0mph /  14.5km/h 18.0mph /  29km/h 33% 0.00in /  0mm
17:35 51.8 °F /  11 °C 24.3 °F /  -4.3 °C 30.10in /  1019.2hPa West 18.0mph /  29km/h 23.0mph /  37km/h 34% 0.00in /  0mm
17:40 51.5 °F /  10.8 °C 24.8 °F /  -4 °C 30.10in /  1019.2hPa West 8.0mph /  12.9km/h 20.0mph /  32.2km/h 35% 0.00in /  0mm
17:45 51.2 °F /  10.7 °C 25.2 °F /  -3.8 °C 30.10in /  1019.2hPa West 6.0mph /  9.7km/h 20.0mph /  32.2km/h 36% 0.00in /  0mm
17:46 51.2 °F /  10.7 °C 25.2 °F /  -3.8 °C 30.10in /  1019.2hPa West 6.0mph /  9.7km/h 20.0mph /  32.2km/h 36% 0.00in /  0mm
17:51 50.9 °F /  10.5 °C 24.9 °F /  -3.9 °C 30.10in /  1019.2hPa WSW 7.0mph /  11.3km/h 24.0mph /  38.6km/h 36% 0.00in /  0mm
17:56 50.7 °F /  10.4 °C 24.7 °F /  -4.1 °C 30.11in /  1019.5hPa WSW 12.0mph /  19.3km/h 23.0mph /  37km/h 36% 0.00in /  0mm
18:01 50.3 °F /  10.2 °C 25.0 °F /  -3.9 °C 30.11in /  1019.5hPa West 8.0mph /  12.9km/h 14.0mph /  22.5km/h 37% 0.00in /  0mm
18:06 49.9 °F /  9.9 °C 25.3 °F /  -3.7 °C 30.12in /  1019.9hPa West 4.0mph /  6.4km/h 11.0mph /  17.7km/h 38% 0.00in /  0mm
18:11 49.5 °F /  9.7 °C 25.6 °F /  -3.6 °C 30.12in /  1019.9hPa West 5.0mph /  8km/h 11.0mph /  17.7km/h 39% 0.00in /  0mm
18:16 49.1 °F /  9.5 °C 25.8 °F /  -3.4 °C 30.12in /  1019.9hPa WSW 4.0mph /  6.4km/h 10.0mph /  16.1km/h 40% 0.00in /  0mm
18:21 48.8 °F /  9.3 °C 25.6 °F /  -3.6 °C 30.13in /  1020.2hPa WNW 5.0mph /  8km/h 8.0mph /  12.9km/h 40% 0.00in /  0mm
18:26 48.7 °F /  9.3 °C 26.1 °F /  -3.3 °C 30.13in /  1020.2hPa West 5.0mph /  8km/h 10.0mph /  16.1km/h 41% 0.00in /  0mm
18:31 48.4 °F /  9.1 °C 25.8 °F /  -3.4 °C 30.13in /  1020.2hPa WNW 3.0mph /  4.8km/h 7.0mph /  11.3km/h 41% 0.00in /  0mm
18:36 48.0 °F /  8.9 °C 26.0 °F /  -3.3 °C 30.14in /  1020.5hPa WNW 4.0mph /  6.4km/h 5.0mph /  8km/h 42% 0.00in /  0mm
18:41 47.9 °F /  8.8 °C 25.9 °F /  -3.4 °C 30.14in /  1020.5hPa WNW 5.0mph /  8km/h 7.0mph /  11.3km/h 42% 0.00in /  0mm
18:46 47.7 °F /  8.7 °C 25.8 °F /  -3.4 °C 30.14in /  1020.5hPa WSW 4.0mph /  6.4km/h 16.0mph /  25.7km/h 42% 0.00in /  0mm
18:51 47.7 °F /  8.7 °C 26.3 °F /  -3.2 °C 30.15in /  1020.9hPa West 5.0mph /  8km/h 11.0mph /  17.7km/h 43% 0.00in /  0mm
18:56 47.9 °F /  8.8 °C 26.5 °F /  -3.1 °C 30.15in /  1020.9hPa WNW 4.0mph /  6.4km/h 13.0mph /  20.9km/h 43% 0.00in /  0mm
19:01 47.9 °F /  8.8 °C 26.5 °F /  -3.1 °C 30.15in /  1020.9hPa West 4.0mph /  6.4km/h 9.0mph /  14.5km/h 43% 0.00in /  0mm
19:06 47.8 °F /  8.8 °C 26.4 °F /  -3.1 °C 30.16in /  1021.2hPa WNW 6.0mph /  9.7km/h 11.0mph /  17.7km/h 43% 0.00in /  0mm
19:11 47.6 °F /  8.7 °C 26.8 °F /  -2.9 °C 30.16in /  1021.2hPa WNW 8.0mph /  12.9km/h 10.0mph /  16.1km/h 44% 0.00in /  0mm
19:16 47.6 °F /  8.7 °C 26.8 °F /  -2.9 °C 30.16in /  1021.2hPa West 6.0mph /  9.7km/h 8.0mph /  12.9km/h 44% 0.00in /  0mm
19:21 47.3 °F /  8.5 °C 26.5 °F /  -3.1 °C 30.16in /  1021.2hPa West 5.0mph /  8km/h 8.0mph /  12.9km/h 44% 0.00in /  0mm
19:26 47.0 °F /  8.3 °C 27.3 °F /  -2.6 °C 30.16in /  1021.2hPa West 6.0mph /  9.7km/h 7.0mph /  11.3km/h 46% 0.00in /  0mm
19:31 47.1 °F /  8.4 °C 27.4 °F /  -2.6 °C 30.17in /  1021.6hPa WSW 5.0mph /  8km/h 6.0mph /  9.7km/h 46% 0.00in /  0mm
19:36 47.1 °F /  8.4 °C 27.4 °F /  -2.6 °C 30.17in /  1021.6hPa West 4.0mph /  6.4km/h 5.0mph /  8km/h 46% 0.00in /  0mm
19:41 47.1 °F /  8.4 °C 27.4 °F /  -2.6 °C 30.17in /  1021.6hPa WSW 6.0mph /  9.7km/h 8.0mph /  12.9km/h 46% 0.00in /  0mm
19:46 47.2 °F /  8.4 °C 27.5 °F /  -2.5 °C 30.17in /  1021.6hPa West 4.0mph /  6.4km/h 7.0mph /  11.3km/h 46% 0.00in /  0mm
19:48 47.1 °F /  8.4 °C 27.4 °F /  -2.6 °C 30.17in /  1021.6hPa WSW 3.0mph /  4.8km/h 7.0mph /  11.3km/h 46% 0.00in /  0mm
19:53 46.9 °F /  8.3 °C 27.7 °F /  -2.4 °C 30.17in /  1021.6hPa WSW 5.0mph /  8km/h 6.0mph /  9.7km/h 47% 0.00in /  0mm
19:58 46.6 °F /  8.1 °C 28.0 °F /  -2.2 °C 30.17in /  1021.6hPa West 2.0mph /  3.2km/h 4.0mph /  6.4km/h 48% 0.00in /  0mm
20:03 46.4 °F /  8 °C 27.8 °F /  -2.3 °C 30.18in /  1021.9hPa WNW 5.0mph /  8km/h 8.0mph /  12.9km/h 48% 0.00in /  0mm
20:08 46.6 °F /  8.1 °C 28.0 °F /  -2.2 °C 30.18in /  1021.9hPa WNW 9.0mph /  14.5km/h 12.0mph /  19.3km/h 48% 0.00in /  0mm
20:13 47.1 °F /  8.4 °C 27.9 °F /  -2.3 °C 30.18in /  1021.9hPa West 6.0mph /  9.7km/h 13.0mph /  20.9km/h 47% 0.00in /  0mm
20:18 47.1 °F /  8.4 °C 27.4 °F /  -2.6 °C 30.18in /  1021.9hPa WSW 5.0mph /  8km/h 10.0mph /  16.1km/h 46% 0.00in /  0mm
20:23 46.8 °F /  8.2 °C 27.6 °F /  -2.4 °C 30.18in /  1021.9hPa WNW 6.0mph /  9.7km/h 10.0mph /  16.1km/h 47% 0.00in /  0mm
20:28 46.8 °F /  8.2 °C 27.6 °F /  -2.4 °C 30.19in /  1022.2hPa West 3.0mph /  4.8km/h 11.0mph /  17.7km/h 47% 0.00in /  0mm
20:33 46.7 °F /  8.2 °C 28.1 °F /  -2.2 °C 30.19in /  1022.2hPa West 4.0mph /  6.4km/h 12.0mph /  19.3km/h 48% 0.00in /  0mm
20:38 46.4 °F /  8 °C 27.8 °F /  -2.3 °C 30.19in /  1022.2hPa WSW 8.0mph /  12.9km/h 9.0mph /  14.5km/h 48% 0.00in /  0mm
20:43 46.3 °F /  7.9 °C 27.7 °F /  -2.4 °C 30.19in /  1022.2hPa West 8.0mph /  12.9km/h 10.0mph /  16.1km/h 48% 0.00in /  0mm
20:48 46.4 °F /  8 °C 28.3 °F /  -2.1 °C 30.19in /  1022.2hPa West 6.0mph /  9.7km/h 12.0mph /  19.3km/h 49% 0.00in /  0mm
20:53 46.3 °F /  7.9 °C 28.2 °F /  -2.1 °C 30.20in /  1022.6hPa West 8.0mph /  12.9km/h 13.0mph /  20.9km/h 49% 0.00in /  0mm
20:58 46.0 °F /  7.8 °C 27.9 °F /  -2.3 °C 30.20in /  1022.6hPa West 6.0mph /  9.7km/h 10.0mph /  16.1km/h 49% 0.00in /  0mm
21:03 45.7 °F /  7.6 °C 28.1 °F /  -2.2 °C 30.20in /  1022.6hPa West 5.0mph /  8km/h 9.0mph /  14.5km/h 50% 0.00in /  0mm
21:08 45.6 °F /  7.6 °C 28.5 °F /  -1.9 °C 30.21in /  1022.9hPa WNW 7.0mph /  11.3km/h 10.0mph /  16.1km/h 51% 0.00in /  0mm
21:13 45.4 °F /  7.4 °C 28.4 °F /  -2 °C 30.21in /  1022.9hPa WNW 3.0mph /  4.8km/h 8.0mph /  12.9km/h 51% 0.00in /  0mm
21:18 45.3 °F /  7.4 °C 28.7 °F /  -1.8 °C 30.21in /  1022.9hPa WNW 5.0mph /  8km/h 9.0mph /  14.5km/h 52% 0.00in /  0mm
21:23 45.0 °F /  7.2 °C 28.5 °F /  -1.9 °C 30.21in /  1022.9hPa West 6.0mph /  9.7km/h 8.0mph /  12.9km/h 52% 0.00in /  0mm
21:29 44.7 °F /  7.1 °C 28.6 °F /  -1.9 °C 30.22in /  1023.2hPa West 6.0mph /  9.7km/h 8.0mph /  12.9km/h 53% 0.00in /  0mm
21:34 44.6 °F /  7 °C 28.5 °F /  -1.9 °C 30.22in /  1023.2hPa West 4.0mph /  6.4km/h 6.0mph /  9.7km/h 53% 0.00in /  0mm
21:39 44.4 °F /  6.9 °C 28.8 °F /  -1.8 °C 30.22in /  1023.2hPa West 4.0mph /  6.4km/h 6.0mph /  9.7km/h 54% 0.00in /  0mm
21:44 44.2 °F /  6.8 °C 28.6 °F /  -1.9 °C 30.22in /  1023.2hPa West 5.0mph /  8km/h 6.0mph /  9.7km/h 54% 0.00in /  0mm
21:49 43.9 °F /  6.6 °C 28.8 °F /  -1.8 °C 30.22in /  1023.2hPa West 6.0mph /  9.7km/h 6.0mph /  9.7km/h 55% 0.00in /  0mm
21:54 43.7 °F /  6.5 °C 28.6 °F /  -1.9 °C 30.23in /  1023.6hPa West 3.0mph /  4.8km/h 6.0mph /  9.7km/h 55% 0.00in /  0mm
21:59 43.5 °F /  6.4 °C 28.9 °F /  -1.7 °C 30.23in /  1023.6hPa WNW 5.0mph /  8km/h 6.0mph /  9.7km/h 56% 0.00in /  0mm
22:04 43.3 °F /  6.3 °C 28.7 °F /  -1.8 °C 30.23in /  1023.6hPa West 4.0mph /  6.4km/h 8.0mph /  12.9km/h 56% 0.00in /  0mm
22:09 43.2 °F /  6.2 °C 29.0 °F /  -1.7 °C 30.23in /  1023.6hPa WNW 3.0mph /  4.8km/h 8.0mph /  12.9km/h 57% 0.00in /  0mm
22:14 43.0 °F /  6.1 °C 28.8 °F /  -1.8 °C 30.24in /  1023.9hPa West 4.0mph /  6.4km/h 8.0mph /  12.9km/h 57% 0.00in /  0mm
22:19 42.8 °F /  6 °C 29.1 °F /  -1.6 °C 30.24in /  1023.9hPa WNW 10.0mph /  16.1km/h 11.0mph /  17.7km/h 58% 0.00in /  0mm
22:24 42.8 °F /  6 °C 29.5 °F /  -1.4 °C 30.24in /  1023.9hPa NW 4.0mph /  6.4km/h 10.0mph /  16.1km/h 59% 0.00in /  0mm
22:29 42.2 °F /  5.7 °C 29.7 °F /  -1.3 °C 30.24in /  1023.9hPa NW 6.0mph /  9.7km/h 16.0mph /  25.7km/h 61% 0.00in /  0mm
22:34 41.6 °F /  5.3 °C 30.0 °F /  -1.1 °C 30.25in /  1024.3hPa NW 5.0mph /  8km/h 9.0mph /  14.5km/h 63% 0.00in /  0mm
22:39 40.9 °F /  4.9 °C 29.7 °F /  -1.3 °C 30.25in /  1024.3hPa NW 8.0mph /  12.9km/h 8.0mph /  12.9km/h 64% 0.00in /  0mm
22:44 40.6 °F /  4.8 °C 29.8 °F /  -1.2 °C 30.26in /  1024.6hPa NW 6.0mph /  9.7km/h 7.0mph /  11.3km/h 65% 0.00in /  0mm
22:49 40.3 °F /  4.6 °C 29.5 °F /  -1.4 °C 30.26in /  1024.6hPa NW 6.0mph /  9.7km/h 9.0mph /  14.5km/h 65% 0.00in /  0mm
22:54 40.5 °F /  4.7 °C 29.3 °F /  -1.5 °C 30.26in /  1024.6hPa NW 4.0mph /  6.4km/h 12.0mph /  19.3km/h 64% 0.00in /  0mm
22:59 40.4 °F /  4.7 °C 28.8 °F /  -1.8 °C 30.26in /  1024.6hPa WNW 7.0mph /  11.3km/h 12.0mph /  19.3km/h 63% 0.00in /  0mm
23:04 40.1 °F /  4.5 °C 28.5 °F /  -1.9 °C 30.27in /  1024.9hPa WNW 5.0mph /  8km/h 10.0mph /  16.1km/h 63% 0.00in /  0mm
23:09 39.8 °F /  4.3 °C 28.6 °F /  -1.9 °C 30.27in /  1024.9hPa NW 6.0mph /  9.7km/h 8.0mph /  12.9km/h 64% 0.00in /  0mm
23:14 39.6 °F /  4.2 °C 28.4 °F /  -2 °C 30.27in /  1024.9hPa WNW 12.0mph /  19.3km/h 12.0mph /  19.3km/h 64% 0.00in /  0mm
23:19 39.6 °F /  4.2 °C 28.4 °F /  -2 °C 30.27in /  1024.9hPa NW 4.0mph /  6.4km/h 9.0mph /  14.5km/h 64% 0.00in /  0mm
23:25 39.2 °F /  4 °C 28.1 °F /  -2.2 °C 30.27in /  1024.9hPa NNW 4.0mph /  6.4km/h 7.0mph /  11.3km/h 64% 0.00in /  0mm
23:30 38.9 °F /  3.8 °C 27.8 °F /  -2.3 °C 30.27in /  1024.9hPa NW 5.0mph /  8km/h 8.0mph /  12.9km/h 64% 0.00in /  0mm
23:35 38.4 °F /  3.6 °C 28.0 °F /  -2.2 °C 30.27in /  1024.9hPa NW 6.0mph /  9.7km/h 7.0mph /  11.3km/h 66% 0.00in /  0mm
23:40 38.0 °F /  3.3 °C 28.0 °F /  -2.2 °C 30.27in /  1024.9hPa NW 5.0mph /  8km/h 6.0mph /  9.7km/h 67% 0.00in /  0mm
23:45 37.8 °F /  3.2 °C 27.8 °F /  -2.3 °C 30.27in /  1024.9hPa NW 3.0mph /  4.8km/h 7.0mph /  11.3km/h 67% 0.00in /  0mm
23:50 37.5 °F /  3.1 °C 27.9 °F /  -2.3 °C 30.28in /  1025.3hPa NW 4.0mph /  6.4km/h 6.0mph /  9.7km/h 68% 0.00in /  0mm
23:55 37.2 °F /  2.9 °C 27.6 °F /  -2.4 °C 30.28in /  1025.3hPa NW 3.0mph /  4.8km/h 4.0mph /  6.4km/h 68% 0.00in /  0mm
Compliments of Weather Underground